Time;durP1;ratioP1;P1;durP2;ratioP2;P2;SDS_P1;SDS_P2;PMS_P1;PMS_P2;Temp;Humidity;BMP_temperature;BMP_pressure;BME280_temperature;BME280_humidity;BME280_pressure;Samples;Min_cycle;Max_cycle;Signal;HPM_P1;HPM_P2
2022/12/31 00:01:03;;;;;;;64.93;49.08;;;14.80;72.40;;;;;;4903697;28;90329;-50
2022/12/31 00:03:28;;;;;;;64.78;49.25;;;14.80;72.20;;;;;;4910920;28;90056;-50
2022/12/31 00:05:54;;;;;;;64.18;48.85;;;14.90;72.20;;;;;;4922129;28;89875;-49
2022/12/31 00:08:20;;;;;;;64.75;49.38;;;14.80;72.10;;;;;;4901652;28;90000;-49
2022/12/31 00:10:46;;;;;;;65.10;49.58;;;14.90;72.10;;;;;;4910174;28;92257;-48
2022/12/31 00:13:12;;;;;;;64.45;49.17;;;14.90;72.10;;;;;;4901181;28;91885;-52
2022/12/31 00:15:39;;;;;;;64.75;49.15;;;14.90;72.20;;;;;;4914461;28;90558;-49
2022/12/31 00:18:05;;;;;;;64.43;49.20;;;14.90;72.10;;;;;;4906286;28;90420;-48
2022/12/31 00:20:31;;;;;;;64.40;48.88;;;14.90;72.20;;;;;;4914166;28;90075;-51
2022/12/31 00:22:56;;;;;;;64.75;49.25;;;14.90;72.10;;;;;;4913223;28;89975;-52
2022/12/31 00:25:22;;;;;;;64.85;49.20;;;14.90;72.20;;;;;;4908891;28;89895;-49
2022/12/31 00:27:48;;;;;;;64.40;49.05;;;14.90;72.40;;;;;;4906374;28;89436;-48
2022/12/31 00:30:14;;;;;;;64.47;48.85;;;14.90;72.10;;;;;;4900591;28;94441;-51
2022/12/31 00:32:39;;;;;;;64.80;49.08;;;14.90;72.40;;;;;;4910416;28;90802;-51
2022/12/31 00:35:05;;;;;;;64.93;49.38;;;14.90;72.50;;;;;;4897801;28;90966;-49
2022/12/31 00:37:31;;;;;;;64.90;49.25;;;14.90;72.50;;;;;;4907347;28;91465;-48
2022/12/31 00:39:57;;;;;;;64.65;49.30;;;14.90;72.20;;;;;;4904053;28;91994;-51
2022/12/31 00:42:22;;;;;;;65.20;49.40;;;14.90;72.20;;;;;;4914967;28;91359;-48
2022/12/31 00:44:48;;;;;;;64.78;49.05;;;14.90;72.40;;;;;;4906389;28;91294;-47
2022/12/31 00:47:14;;;;;;;64.72;49.10;;;14.90;72.70;;;;;;4909380;28;91967;-50
2022/12/31 00:49:39;;;;;;;64.22;48.85;;;14.90;72.30;;;;;;4909798;28;89824;-49
2022/12/31 00:52:05;;;;;;;65.15;48.95;;;14.90;72.20;;;;;;4908297;28;89399;-46
2022/12/31 00:54:31;;;;;;;64.10;48.70;;;14.90;72.30;;;;;;4904911;28;89859;-47
2022/12/31 00:56:56;;;;;;;64.45;49.17;;;14.90;72.50;;;;;;4904768;28;90162;-47
2022/12/31 00:59:22;;;;;;;64.50;48.97;;;14.90;72.50;;;;;;4913603;28;92807;-52
2022/12/31 01:01:48;;;;;;;64.60;49.15;;;14.90;72.70;;;;;;4919293;28;90120;-51
2022/12/31 01:04:17;;;;;;;64.90;49.15;;;14.90;72.20;;;;;;4912783;28;93130;-48
2022/12/31 01:06:44;;;;;;;64.60;49.17;;;14.90;72.20;;;;;;4907132;28;89588;-51
2022/12/31 01:09:12;;;;;;;64.55;49.08;;;14.90;72.60;;;;;;4914842;28;91182;-50
2022/12/31 01:11:38;;;;;;;64.78;49.20;;;14.90;72.40;;;;;;4903018;28;90777;-48
2022/12/31 01:14:11;;;;;;;64.50;49.03;;;14.90;72.50;;;;;;4906900;28;91199;-49
2022/12/31 01:16:45;;;;;;;64.38;48.92;;;14.90;72.50;;;;;;4907316;28;89835;-50
2022/12/31 01:19:17;;;;;;;64.85;49.40;;;14.90;72.30;;;;;;4917073;28;92392;-47
2022/12/31 01:21:44;;;;;;;64.72;49.13;;;14.90;72.70;;;;;;4903682;28;89932;-51
2022/12/31 01:24:11;;;;;;;64.25;49.00;;;14.80;72.80;;;;;;4906663;28;91431;-49
2022/12/31 01:26:37;;;;;;;64.20;48.90;;;14.80;72.60;;;;;;4914542;28;89819;-48
2022/12/31 01:29:05;;;;;;;64.55;49.05;;;14.80;72.40;;;;;;4913925;28;90790;-49
2022/12/31 01:31:32;;;;;;;64.28;49.00;;;14.80;72.20;;;;;;4904385;28;94576;-46
2022/12/31 01:33:58;;;;;;;64.18;48.80;;;14.90;72.20;;;;;;4909211;28;92929;-49
2022/12/31 01:36:27;;;;;;;64.40;49.15;;;14.90;72.40;;;;;;4910942;28;91859;-49
2022/12/31 01:38:54;;;;;;;64.65;49.20;;;14.90;72.30;;;;;;4918611;28;91236;-49
2022/12/31 01:41:36;;;;;;;64.38;48.85;;;14.90;72.40;;;;;;4912222;28;89957;-47
2022/12/31 01:44:22;;;;;;;64.07;48.85;;;14.90;72.40;;;;;;4911358;28;90321;-50
2022/12/31 01:46:52;;;;;;;64.57;49.08;;;14.90;72.10;;;;;;4912910;28;91508;-47
2022/12/31 01:49:20;;;;;;;64.53;48.85;;;14.90;72.40;;;;;;4909456;28;90980;-49
2022/12/31 01:51:51;;;;;;;64.65;49.03;;;14.90;72.20;;;;;;4912773;28;90978;-50
2022/12/31 01:54:20;;;;;;;64.85;49.17;;;14.90;72.20;;;;;;4909157;28;89985;-47
2022/12/31 01:56:47;;;;;;;65.93;49.47;;;14.90;72.20;;;;;;4916101;28;90428;-51
2022/12/31 01:59:16;;;;;;;64.78;49.28;;;14.90;72.10;;;;;;4915815;28;89905;-50
2022/12/31 02:01:42;;;;;;;64.97;49.33;;;14.90;72.10;;;;;;4912116;28;92117;-48
2022/12/31 02:04:11;;;;;;;64.85;49.30;;;14.90;72.10;;;;;;4903687;28;91386;-50
2022/12/31 02:06:48;;;;;;;64.40;48.85;;;14.90;72.10;;;;;;4908198;28;89601;-48
2022/12/31 02:09:14;;;;;;;64.88;49.17;;;14.90;72.20;;;;;;4910168;28;89875;-49
2022/12/31 02:11:40;;;;;;;64.75;49.40;;;14.90;72.10;;;;;;4910864;28;90443;-48
2022/12/31 02:14:17;;;;;;;64.22;48.58;;;14.90;71.90;;;;;;4924345;28;91077;-49
2022/12/31 02:17:15;;;;;;;65.20;49.20;;;15.00;72.00;;;;;;4917704;28;91175;-50
2022/12/31 02:19:58;;;;;;;64.88;49.25;;;15.00;71.90;;;;;;4910760;28;92568;-50
2022/12/31 02:22:48;;;;;;;64.88;49.25;;;15.00;72.10;;;;;;4908907;28;90240;-50
2022/12/31 02:25:42;;;;;;;64.28;48.95;;;15.00;71.80;;;;;;4910639;28;90303;-47
2022/12/31 02:28:22;;;;;;;64.40;48.80;;;14.90;71.70;;;;;;4911134;28;91026;-51
2022/12/31 02:30:59;;;;;;;64.82;49.20;;;15.00;71.80;;;;;;4910060;28;91049;-51
2022/12/31 02:33:42;;;;;;;65.03;49.22;;;15.00;72.00;;;;;;4916148;28;91697;-49
2022/12/31 02:36:14;;;;;;;64.95;48.65;;;15.00;71.80;;;;;;4905264;28;92528;-48
2022/12/31 02:38:43;;;;;;;66.00;49.28;;;15.00;71.70;;;;;;4907601;28;90026;-50
2022/12/31 02:44:25;;;;;;;64.75;49.33;;;15.00;71.70;;;;;;4909968;28;90173;-48
2022/12/31 02:47:19;;;;;;;64.63;49.15;;;15.00;71.90;;;;;;4903500;28;90959;-49
2022/12/31 02:50:54;;;;;;;64.93;49.17;;;15.00;71.70;;;;;;4908671;28;90453;-50
2022/12/31 02:53:43;;;;;;;64.93;49.05;;;15.00;71.80;;;;;;4859713;28;91254;-47
2022/12/31 02:56:31;;;;;;;64.93;48.53;;;15.00;71.80;;;;;;4911892;28;90495;-50
2022/12/31 03:04:59;;;;;;;64.40;48.60;;;15.00;71.70;;;;;;4913845;28;89704;-48
2022/12/31 03:07:30;;;;;;;64.95;49.10;;;15.10;71.90;;;;;;4906180;28;89820;-49
2022/12/31 03:09:57;;;;;;;65.00;49.00;;;15.00;72.00;;;;;;4916839;28;90999;-48
2022/12/31 03:15:21;;;;;;;65.07;49.13;;;15.10;72.00;;;;;;4907896;28;90260;-48
2022/12/31 03:18:08;;;;;;;65.55;49.53;;;15.10;72.00;;;;;;4904568;28;90325;-50
2022/12/31 03:23:24;;;;;;;64.90;49.42;;;15.00;71.80;;;;;;4910041;28;93747;-52
2022/12/31 03:25:52;;;;;;;65.15;49.05;;;15.10;72.00;;;;;;4915013;28;90953;-52
2022/12/31 03:28:19;;;;;;;65.18;49.08;;;15.10;72.10;;;;;;4906970;28;89206;-51
2022/12/31 03:30:48;;;;;;;65.65;48.75;;;15.00;71.90;;;;;;4903871;28;90120;-50
2022/12/31 03:33:14;;;;;;;65.53;49.45;;;15.10;72.10;;;;;;4908255;28;90917;-46
2022/12/31 03:35:42;;;;;;;65.40;49.33;;;15.00;71.80;;;;;;4907331;28;91444;-48
2022/12/31 03:38:07;;;;;;;66.22;49.33;;;15.10;72.00;;;;;;4862286;28;1213773;-48
2022/12/31 03:40:45;;;;;;;65.55;49.20;;;15.10;72.20;;;;;;4905566;28;93499;-49
2022/12/31 03:43:10;;;;;;;64.82;49.08;;;15.10;72.00;;;;;;4908346;28;90858;-51
2022/12/31 03:45:37;;;;;;;65.03;48.88;;;15.10;72.10;;;;;;4909399;28;90524;-50
2022/12/31 03:48:04;;;;;;;65.90;48.88;;;15.10;72.00;;;;;;4904912;28;90061;-51
2022/12/31 03:50:30;;;;;;;65.78;49.22;;;15.10;72.10;;;;;;4921082;28;90760;-52
2022/12/31 03:52:56;;;;;;;65.03;48.97;;;15.10;71.80;;;;;;4902028;28;89382;-47
2022/12/31 03:55:22;;;;;;;65.97;49.35;;;15.10;71.90;;;;;;4906180;28;90344;-48
2022/12/31 03:57:48;;;;;;;65.28;49.38;;;15.10;72.00;;;;;;4898391;28;90010;-48
2022/12/31 04:00:18;;;;;;;65.80;49.15;;;15.10;71.90;;;;;;4906110;28;91917;-47
2022/12/31 04:02:44;;;;;;;65.80;49.78;;;15.10;72.00;;;;;;4910335;28;93199;-52
2022/12/31 04:05:11;;;;;;;66.18;49.05;;;15.10;72.00;;;;;;4914303;28;90796;-49
2022/12/31 04:07:36;;;;;;;65.75;49.13;;;15.10;71.90;;;;;;4916328;28;90451;-50
2022/12/31 04:10:04;;;;;;;66.05;49.35;;;15.10;72.00;;;;;;4904460;28;89647;-52
2022/12/31 04:12:33;;;;;;;65.28;49.10;;;15.10;72.00;;;;;;4902149;28;92769;-47
2022/12/31 04:14:58;;;;;;;65.60;49.35;;;15.10;72.00;;;;;;4916386;28;90530;-48
2022/12/31 04:17:25;;;;;;;65.53;49.45;;;15.10;71.80;;;;;;4913098;28;90272;-48
2022/12/31 04:19:50;;;;;;;66.05;49.38;;;15.10;71.90;;;;;;4910066;28;89867;-50
2022/12/31 04:22:16;;;;;;;65.65;49.35;;;15.10;71.80;;;;;;4911765;28;89927;-53
2022/12/31 04:24:42;;;;;;;65.55;49.28;;;15.10;72.00;;;;;;4908866;28;94770;-49
2022/12/31 04:27:09;;;;;;;65.25;49.00;;;15.10;71.80;;;;;;4914340;28;90862;-48
2022/12/31 04:29:35;;;;;;;65.95;49.58;;;15.10;71.80;;;;;;4909573;28;90781;-48
2022/12/31 04:32:01;;;;;;;66.03;49.20;;;15.10;71.90;;;;;;4910740;28;90383;-51
2022/12/31 04:34:27;;;;;;;65.45;49.15;;;15.10;71.70;;;;;;4906312;28;90677;-48
2022/12/31 04:36:52;;;;;;;65.55;49.00;;;15.10;71.90;;;;;;4906564;28;91177;-48
2022/12/31 04:39:18;;;;;;;65.53;49.25;;;15.20;72.00;;;;;;4910230;28;89882;-49
2022/12/31 04:41:44;;;;;;;65.82;49.25;;;15.10;72.00;;;;;;4906766;28;93853;-51
2022/12/31 04:44:09;;;;;;;65.50;49.30;;;15.20;71.90;;;;;;4904909;28;92699;-47
2022/12/31 04:46:35;;;;;;;65.57;49.22;;;15.20;71.90;;;;;;4917135;28;90375;-49
2022/12/31 04:49:01;;;;;;;65.97;49.50;;;15.20;71.80;;;;;;4910525;28;90929;-48
2022/12/31 04:51:28;;;;;;;65.90;49.15;;;15.20;72.10;;;;;;4909231;28;91960;-48
2022/12/31 04:53:54;;;;;;;65.75;49.40;;;15.10;71.80;;;;;;4903055;28;91106;-48
2022/12/31 04:56:20;;;;;;;65.50;49.28;;;15.20;71.80;;;;;;4909350;28;89845;-50
2022/12/31 04:58:46;;;;;;;65.57;49.15;;;15.20;72.10;;;;;;4911835;28;89820;-51
2022/12/31 05:01:15;;;;;;;65.57;49.15;;;15.20;71.80;;;;;;4909810;28;90172;-48
2022/12/31 05:03:42;;;;;;;65.65;49.17;;;15.20;71.90;;;;;;4915782;28;90000;-50
2022/12/31 05:06:18;;;;;;;66.32;49.65;;;15.20;71.90;;;;;;4904712;28;90093;-50
2022/12/31 05:08:44;;;;;;;66.28;49.42;;;15.20;71.90;;;;;;4920567;28;90698;-48
2022/12/31 05:11:10;;;;;;;65.50;49.45;;;15.20;71.80;;;;;;4913466;28;90046;-50
2022/12/31 05:13:36;;;;;;;65.72;49.10;;;15.20;71.60;;;;;;4910370;28;92278;-47
2022/12/31 05:16:03;;;;;;;65.82;49.40;;;15.20;71.70;;;;;;4904622;28;90223;-53
2022/12/31 05:18:29;;;;;;;65.72;49.47;;;15.20;71.60;;;;;;4902952;28;89880;-51
2022/12/31 05:20:55;;;;;;;65.78;49.25;;;15.20;71.90;;;;;;4912299;28;90096;-49
2022/12/31 05:23:21;;;;;;;66.13;49.38;;;15.20;71.80;;;;;;4911731;28;90985;-48
2022/12/31 05:25:47;;;;;;;65.80;49.35;;;15.20;72.20;;;;;;4922585;28;90127;-49
2022/12/31 05:28:14;;;;;;;66.07;49.22;;;15.20;71.90;;;;;;4905846;28;89653;-50
2022/12/31 05:30:39;;;;;;;65.93;49.22;;;15.20;72.20;;;;;;4904015;28;89331;-49
2022/12/31 05:33:05;;;;;;;65.72;49.20;;;15.20;71.80;;;;;;4906462;28;90128;-47
2022/12/31 05:35:31;;;;;;;65.57;49.15;;;15.30;71.80;;;;;;4918559;28;90730;-53
2022/12/31 05:37:58;;;;;;;65.72;49.33;;;15.20;72.00;;;;;;4912402;28;92288;-51
2022/12/31 05:40:23;;;;;;;65.95;49.47;;;15.20;71.80;;;;;;4909991;28;90169;-49
2022/12/31 05:42:49;;;;;;;66.03;49.20;;;15.20;72.10;;;;;;4917583;28;92043;-48
2022/12/31 05:45:17;;;;;;;65.70;49.13;;;15.30;71.90;;;;;;4916888;28;91993;-47
2022/12/31 05:47:43;;;;;;;66.63;49.67;;;15.30;72.10;;;;;;4911474;28;90557;-48
2022/12/31 05:50:10;;;;;;;66.10;49.55;;;15.30;72.00;;;;;;4912988;28;89471;-49
2022/12/31 05:52:36;;;;;;;66.18;49.20;;;15.20;71.90;;;;;;4911570;28;90709;-47
2022/12/31 05:55:02;;;;;;;66.82;49.30;;;15.30;72.00;;;;;;4925542;28;91582;-50
2022/12/31 05:57:28;;;;;;;66.40;49.47;;;15.20;71.90;;;;;;4908726;28;90669;-52
2022/12/31 05:59:53;;;;;;;65.78;49.28;;;15.20;72.00;;;;;;4916537;28;93939;-47
2022/12/31 06:02:19;;;;;;;66.10;49.22;;;15.20;72.00;;;;;;4906104;28;92034;-49
2022/12/31 06:04:45;;;;;;;66.10;49.47;;;15.20;71.90;;;;;;4908147;28;92668;-51
2022/12/31 06:07:11;;;;;;;66.38;49.53;;;15.30;72.00;;;;;;4911282;28;90841;-50
2022/12/31 06:09:37;;;;;;;67.95;49.47;;;15.30;72.10;;;;;;4904674;28;89924;-50
2022/12/31 06:12:03;;;;;;;65.65;48.95;;;15.30;72.20;;;;;;4913962;28;90547;-51
2022/12/31 06:14:28;;;;;;;66.30;49.17;;;15.30;71.90;;;;;;4909788;28;89893;-48
2022/12/31 06:16:54;;;;;;;66.30;49.03;;;15.30;72.00;;;;;;4900449;28;89751;-52
2022/12/31 06:19:19;;;;;;;66.35;49.53;;;15.20;71.90;;;;;;4912861;28;89479;-47
2022/12/31 06:21:45;;;;;;;66.05;49.53;;;15.30;71.90;;;;;;4898425;28;92965;-48
2022/12/31 06:24:11;;;;;;;65.80;49.22;;;15.30;71.90;;;;;;4916890;28;90023;-52
2022/12/31 06:26:36;;;;;;;65.93;49.25;;;15.30;72.00;;;;;;4906593;28;90719;-48
2022/12/31 06:29:02;;;;;;;66.50;49.63;;;15.30;71.80;;;;;;4907957;28;90245;-50
2022/12/31 06:31:28;;;;;;;66.03;49.13;;;15.30;72.00;;;;;;4909757;28;90723;-50
2022/12/31 06:33:54;;;;;;;66.57;49.60;;;15.30;71.90;;;;;;4907707;28;90367;-49
2022/12/31 06:36:21;;;;;;;66.25;49.30;;;15.30;72.10;;;;;;4905331;28;90692;-51
2022/12/31 06:38:47;;;;;;;68.28;49.25;;;15.30;72.10;;;;;;4922698;28;89883;-47
2022/12/31 06:41:17;;;;;;;66.03;49.35;;;15.30;72.00;;;;;;4903782;28;90126;-47
2022/12/31 06:43:43;;;;;;;66.15;49.55;;;15.30;72.00;;;;;;4907028;28;89964;-48
2022/12/31 06:46:14;;;;;;;66.22;49.00;;;15.30;72.50;;;;;;4899944;28;90788;-48
2022/12/31 06:48:42;;;;;;;65.90;49.55;;;15.30;72.20;;;;;;4903169;28;89953;-51
2022/12/31 06:51:18;;;;;;;66.28;49.42;;;15.30;72.00;;;;;;4903915;28;91313;-50
2022/12/31 06:53:45;;;;;;;66.85;49.17;;;15.30;71.80;;;;;;4902688;28;90956;-50
2022/12/31 06:56:27;;;;;;;66.03;49.65;;;15.30;72.20;;;;;;4913415;28;90081;-50
2022/12/31 06:58:53;;;;;;;65.80;49.42;;;15.30;72.20;;;;;;4910164;28;90586;-51
2022/12/31 07:01:49;;;;;;;65.82;49.35;;;15.30;72.30;;;;;;4911649;28;89551;-51
2022/12/31 07:04:48;;;;;;;65.80;49.17;;;15.30;72.00;;;;;;4905115;28;92399;-49
2022/12/31 07:07:24;;;;;;;66.10;49.53;;;15.30;71.90;;;;;;4910442;28;89995;-51
2022/12/31 07:09:53;;;;;;;66.40;49.35;;;15.30;72.20;;;;;;4912097;28;89174;-50
2022/12/31 07:12:33;;;;;;;66.50;49.17;;;15.30;72.20;;;;;;4910795;28;91563;-48
2022/12/31 07:15:10;;;;;;;65.95;49.15;;;15.30;72.10;;;;;;4903518;28;90222;-48
2022/12/31 07:17:42;;;;;;;66.15;49.17;;;15.30;72.10;;;;;;4907893;28;90882;-48
2022/12/31 07:20:11;;;;;;;66.13;49.45;;;15.30;72.50;;;;;;4907159;28;90280;-50
2022/12/31 07:22:38;;;;;;;66.50;49.50;;;15.30;72.30;;;;;;4909046;28;90180;-49
2022/12/31 07:25:05;;;;;;;67.25;49.40;;;15.30;72.30;;;;;;4910498;28;90384;-50
2022/12/31 07:27:52;;;;;;;67.00;49.53;;;15.30;72.30;;;;;;4901768;28;93715;-50
2022/12/31 07:30:38;;;;;;;66.10;49.33;;;15.30;72.40;;;;;;4900765;28;90007;-52
2022/12/31 07:33:23;;;;;;;67.57;49.72;;;15.40;72.60;;;;;;4904850;28;93621;-49
2022/12/31 07:36:07;;;;;;;66.95;49.30;;;15.40;72.60;;;;;;4914209;28;90123;-51
2022/12/31 07:38:49;;;;;;;65.47;49.05;;;15.40;72.50;;;;;;4900192;28;90290;-50
2022/12/31 07:41:59;;;;;;;66.88;49.90;;;15.30;72.20;;;;;;4895485;28;89719;-49
2022/12/31 07:44:48;;;;;;;66.07;49.55;;;15.40;72.60;;;;;;4886775;28;92484;-49
2022/12/31 07:47:24;;;;;;;67.03;49.55;;;15.30;72.50;;;;;;4899500;28;90857;-50
2022/12/31 07:49:51;;;;;;;66.78;49.53;;;15.40;72.50;;;;;;4906033;28;90294;-49
2022/12/31 07:52:17;;;;;;;66.85;49.55;;;15.30;72.50;;;;;;4917869;28;89599;-49
2022/12/31 07:54:43;;;;;;;66.85;49.45;;;15.40;72.40;;;;;;4904951;28;89873;-51
2022/12/31 07:57:12;;;;;;;75.95;50.28;;;15.40;72.60;;;;;;4899752;28;90639;-51
2022/12/31 07:59:59;;;;;;;69.50;50.58;;;15.40;74.00;;;;;;4894706;28;89981;-45
2022/12/31 08:02:58;;;;;;;77.93;51.78;;;15.50;77.80;;;;;;4898907;28;89672;-49
2022/12/31 08:05:42;;;;;;;73.95;51.20;;;15.50;78.30;;;;;;4902901;28;95400;-46
2022/12/31 08:08:34;;;;;;;72.78;50.75;;;15.60;78.40;;;;;;4908372;28;90047;-51
2022/12/31 08:11:10;;;;;;;71.15;50.45;;;15.60;78.60;;;;;;4907069;28;90902;-47
2022/12/31 08:13:37;;;;;;;74.40;51.03;;;15.60;78.50;;;;;;4907121;28;90522;-47
2022/12/31 08:16:02;;;;;;;72.85;50.75;;;15.60;78.60;;;;;;4913685;28;89909;-45
2022/12/31 08:18:28;;;;;;;71.13;50.55;;;15.60;78.50;;;;;;4906104;28;93310;-49
2022/12/31 08:21:02;;;;;;;72.32;50.85;;;15.60;78.70;;;;;;4904090;28;90413;-46
2022/12/31 08:23:52;;;;;;;70.90;51.10;;;15.60;78.50;;;;;;4907487;28;89707;-46
2022/12/31 08:26:23;;;;;;;73.72;51.05;;;15.60;78.60;;;;;;4906981;28;89534;-49
2022/12/31 08:29:25;;;;;;;69.93;50.38;;;15.60;78.60;;;;;;4910553;28;88961;-47
2022/12/31 08:31:54;;;;;;;68.90;50.58;;;15.60;78.50;;;;;;4915230;28;91021;-50
2022/12/31 08:34:34;;;;;;;71.03;50.55;;;15.60;78.50;;;;;;4912136;28;90108;-47
2022/12/31 08:37:30;;;;;;;73.82;50.55;;;15.60;78.60;;;;;;4910198;28;91285;-49
2022/12/31 08:40:30;;;;;;;69.20;50.58;;;15.70;78.60;;;;;;4914889;28;92799;-46
2022/12/31 08:43:12;;;;;;;70.85;50.38;;;15.70;78.60;;;;;;4905083;28;92138;-47
2022/12/31 08:45:45;;;;;;;74.05;51.22;;;15.70;78.50;;;;;;4908509;28;90063;-50
2022/12/31 08:48:31;;;;;;;70.10;50.55;;;15.70;79.00;;;;;;4915298;28;89908;-47
2022/12/31 08:50:57;;;;;;;69.90;50.55;;;15.70;78.50;;;;;;4910734;28;90720;-48
2022/12/31 08:53:23;;;;;;;70.05;50.45;;;15.70;78.60;;;;;;4898745;28;91379;-48
2022/12/31 08:55:55;;;;;;;70.25;50.92;;;15.70;78.60;;;;;;4909263;28;89063;-48
2022/12/31 08:58:35;;;;;;;71.47;50.90;;;15.70;78.50;;;;;;4911633;28;89940;-46
2022/12/31 09:01:02;;;;;;;70.65;50.55;;;15.70;78.40;;;;;;4905070;28;90149;-48
2022/12/31 09:03:37;;;;;;;70.95;50.72;;;15.70;78.50;;;;;;4905197;28;90595;-47
2022/12/31 09:06:11;;;;;;;71.00;50.63;;;15.70;78.40;;;;;;4907150;28;89827;-46
2022/12/31 09:09:17;;;;;;;70.82;50.58;;;15.70;78.50;;;;;;4900691;28;93522;-48
2022/12/31 09:12:02;;;;;;;74.93;50.90;;;15.70;79.10;;;;;;4895763;28;90972;-52
2022/12/31 09:14:48;;;;;;;73.03;50.72;;;15.70;78.70;;;;;;4904147;28;95480;-43
2022/12/31 09:17:22;;;;;;;71.60;50.72;;;15.80;79.60;;;;;;4902535;28;89605;-49
2022/12/31 09:19:48;;;;;;;74.75;51.13;;;16.00;80.60;;;;;;4911252;28;90278;-51
2022/12/31 09:22:14;;;;;;;72.03;51.10;;;16.00;80.10;;;;;;4909900;28;90164;-49
2022/12/31 09:24:40;;;;;;;71.95;50.95;;;16.00;79.70;;;;;;4907044;28;91013;-52
2022/12/31 09:27:14;;;;;;;72.25;50.65;;;16.00;79.60;;;;;;4915905;28;90012;-53
2022/12/31 09:29:55;;;;;;;73.75;50.97;;;16.00;79.40;;;;;;4901882;28;91233;-47
2022/12/31 09:32:38;;;;;;;71.50;50.58;;;16.10;79.50;;;;;;4906059;28;94216;-46
2022/12/31 09:35:24;;;;;;;73.47;50.88;;;16.10;79.20;;;;;;4909582;28;89886;-52
2022/12/31 09:37:56;;;;;;;71.25;51.25;;;16.10;79.00;;;;;;4902640;28;91363;-55
2022/12/31 09:40:46;;;;;;;73.07;50.72;;;16.10;78.90;;;;;;4906377;28;91671;-54
2022/12/31 09:43:24;;;;;;;71.50;50.50;;;16.10;78.70;;;;;;4902976;28;92045;-54
2022/12/31 09:46:08;;;;;;;71.55;50.85;;;16.10;78.90;;;;;;4908667;28;89870;-53
2022/12/31 09:49:11;;;;;;;71.55;50.55;;;16.10;78.90;;;;;;4912782;28;90731;-53
2022/12/31 09:51:51;;;;;;;72.28;50.95;;;16.10;78.80;;;;;;4914545;28;90776;-56
2022/12/31 09:54:28;;;;;;;70.65;50.75;;;16.10;79.00;;;;;;4912483;28;91859;-52
2022/12/31 09:57:24;;;;;;;75.28;51.22;;;16.20;78.90;;;;;;4909692;28;91487;-48
2022/12/31 09:59:50;;;;;;;71.50;50.83;;;16.20;78.50;;;;;;4912366;28;91050;-54
2022/12/31 10:02:27;;;;;;;71.03;50.83;;;16.20;78.30;;;;;;4910758;28;91593;-53
2022/12/31 10:05:20;;;;;;;70.28;50.83;;;16.20;78.20;;;;;;4914833;28;90994;-53
2022/12/31 10:08:17;;;;;;;71.47;50.28;;;16.20;78.10;;;;;;4909351;28;90444;-52
2022/12/31 10:10:53;;;;;;;70.72;50.50;;;16.20;78.10;;;;;;4895331;28;90782;-53
2022/12/31 10:13:40;;;;;;;71.50;50.47;;;16.20;77.90;;;;;;4908922;28;90395;-52
2022/12/31 10:16:22;;;;;;;71.45;51.08;;;16.20;77.80;;;;;;4902329;28;90832;-52
2022/12/31 10:19:11;;;;;;;71.38;50.83;;;16.20;78.00;;;;;;4905781;28;91173;-49
2022/12/31 10:22:02;;;;;;;73.32;50.95;;;16.10;77.70;;;;;;4912281;28;89872;-50
2022/12/31 10:25:05;;;;;;;72.68;50.85;;;16.20;77.60;;;;;;4914221;28;91785;-53
2022/12/31 10:28:04;;;;;;;70.40;50.78;;;16.20;77.60;;;;;;4911115;28;90273;-50
2022/12/31 10:30:34;;;;;;;71.82;50.63;;;16.20;78.60;;;;;;4904851;28;92375;-51
2022/12/31 10:33:06;;;;;;;74.07;50.63;;;16.20;77.60;;;;;;4905144;28;91309;-51
2022/12/31 10:35:38;;;;;;;71.78;51.00;;;16.20;77.60;;;;;;4909171;28;90462;-52
2022/12/31 10:38:09;;;;;;;69.82;50.47;;;16.20;77.80;;;;;;4909838;28;89937;-50
2022/12/31 10:40:44;;;;;;;70.35;50.83;;;16.20;77.50;;;;;;4913868;28;91078;-52
2022/12/31 10:43:28;;;;;;;71.30;50.72;;;16.20;77.50;;;;;;4904523;28;90769;-50
2022/12/31 10:46:30;;;;;;;70.78;50.75;;;16.20;77.50;;;;;;4905972;28;90367;-48
2022/12/31 10:49:08;;;;;;;;;;;16.20;77.50;;;;;;4906355;28;91132;-50
2022/12/31 10:51:42;;;;;;;71.22;50.60;;;16.20;77.50;;;;;;4904240;28;91798;-49
2022/12/31 10:54:41;;;;;;;71.15;50.60;;;16.20;77.50;;;;;;4909248;28;91581;-53
2022/12/31 10:57:37;;;;;;;71.53;50.58;;;16.20;77.50;;;;;;4899124;28;89939;-51
2022/12/31 11:00:10;;;;;;;70.90;50.92;;;16.20;77.60;;;;;;4899242;28;90388;-51
2022/12/31 11:02:39;;;;;;;70.38;50.50;;;16.20;77.60;;;;;;4904371;28;92356;-47
2022/12/31 11:06:01;;;;;;;72.65;50.80;;;16.20;77.50;;;;;;4905995;28;90438;-52
2022/12/31 11:09:04;;;;;;;70.43;50.60;;;16.20;77.50;;;;;;4887611;28;90539;-50
2022/12/31 11:11:30;;;;;;;71.20;50.78;;;16.20;77.50;;;;;;4888511;28;89913;-52
2022/12/31 11:14:24;;;;;;;71.05;50.50;;;16.20;77.40;;;;;;4899684;28;91119;-50
2022/12/31 11:17:11;;;;;;;72.75;50.75;;;16.20;77.30;;;;;;4901560;28;91021;-52
2022/12/31 11:19:43;;;;;;;69.90;50.35;;;16.20;77.30;;;;;;4907329;28;92694;-52
2022/12/31 11:22:08;;;;;;;;;;;16.20;77.40;;;;;;4902741;28;91066;-55
2022/12/31 11:25:11;;;;;;;69.05;50.03;;;16.20;77.20;;;;;;4913295;28;92954;-54
2022/12/31 11:27:48;;;;;;;69.35;50.33;;;16.20;77.30;;;;;;4906975;28;89544;-50
2022/12/31 11:30:56;;;;;;;70.00;50.33;;;16.20;77.20;;;;;;4909175;28;90228;-54
2022/12/31 11:33:42;;;;;;;69.90;50.55;;;16.20;77.20;;;;;;4907017;28;91581;-51
2022/12/31 11:36:31;;;;;;;68.60;50.25;;;16.20;77.20;;;;;;4910495;28;90430;-53
2022/12/31 11:39:34;;;;;;;69.50;50.55;;;16.20;77.10;;;;;;4902903;28;89599;-50
2022/12/31 11:42:38;;;;;;;70.60;50.38;;;16.20;77.10;;;;;;4903495;28;90344;-54
2022/12/31 11:45:18;;;;;;;70.50;50.72;;;16.20;77.10;;;;;;4904146;28;90598;-52
2022/12/31 11:48:11;;;;;;;69.53;50.45;;;16.20;77.20;;;;;;4901622;28;92550;-53
2022/12/31 11:50:43;;;;;;;69.82;50.60;;;16.20;77.10;;;;;;4904261;28;89897;-53
2022/12/31 11:53:30;;;;;;;72.45;50.83;;;16.20;77.00;;;;;;4922486;28;89960;-53
2022/12/31 11:56:22;;;;;;;70.00;50.83;;;16.30;77.10;;;;;;4904396;28;91784;-54
2022/12/31 11:58:52;;;;;;;71.10;50.97;;;16.20;77.00;;;;;;4903524;28;89951;-53
2022/12/31 12:01:40;;;;;;;71.22;50.72;;;16.30;77.30;;;;;;4908990;28;89960;-54
2022/12/31 12:04:07;;;;;;;70.90;50.70;;;16.30;77.10;;;;;;4906575;28;90468;-52
2022/12/31 12:06:32;;;;;;;70.07;50.67;;;16.30;77.10;;;;;;4901894;28;90951;-54
2022/12/31 12:09:13;;;;;;;70.32;50.63;;;16.30;77.10;;;;;;4907824;28;90157;-54
2022/12/31 12:11:39;;;;;;;69.70;50.70;;;16.30;77.10;;;;;;4915471;28;94852;-50
2022/12/31 12:14:20;;;;;;;71.70;50.75;;;16.30;77.10;;;;;;4912079;28;91244;-53
2022/12/31 12:16:51;;;;;;;71.70;50.60;;;16.30;77.10;;;;;;4917221;28;90112;-55
2022/12/31 12:19:17;;;;;;;69.23;50.50;;;16.30;77.10;;;;;;4903496;28;89965;-52
2022/12/31 12:21:47;;;;;;;70.53;50.63;;;16.30;77.20;;;;;;4910445;28;89836;-54
2022/12/31 12:24:29;;;;;;;71.97;50.92;;;16.30;77.10;;;;;;4906176;28;91424;-53
2022/12/31 12:26:56;;;;;;;71.82;50.75;;;16.30;77.10;;;;;;4905499;28;91424;-53
2022/12/31 12:29:31;;;;;;;72.82;50.58;;;16.30;77.00;;;;;;4910407;28;90151;-52
2022/12/31 12:32:15;;;;;;;70.38;50.58;;;16.30;77.10;;;;;;4908307;28;92518;-51
2022/12/31 12:34:42;;;;;;;70.30;50.70;;;16.30;77.10;;;;;;4912084;28;91178;-54
2022/12/31 12:37:32;;;;;;;71.57;50.88;;;16.30;76.90;;;;;;4904461;28;89942;-48
2022/12/31 12:40:02;;;;;;;71.45;50.45;;;16.30;76.90;;;;;;4905346;28;92643;-51
2022/12/31 12:42:28;;;;;;;70.35;50.63;;;16.30;76.90;;;;;;4905382;28;90481;-54
2022/12/31 12:45:05;;;;;;;70.07;50.72;;;16.30;76.90;;;;;;4909809;28;90364;-52
2022/12/31 12:47:32;;;;;;;69.43;50.42;;;16.30;76.90;;;;;;4900474;28;91335;-53
2022/12/31 12:49:58;;;;;;;71.07;50.90;;;16.30;76.80;;;;;;4905563;28;91082;-50
2022/12/31 12:52:43;;;;;;;69.88;50.78;;;16.30;76.80;;;;;;4912019;28;90743;-52
2022/12/31 12:55:40;;;;;;;69.82;50.83;;;16.30;76.70;;;;;;4918724;28;95035;-52
2022/12/31 12:58:27;;;;;;;70.53;50.65;;;16.30;76.60;;;;;;4904591;28;90009;-51
2022/12/31 13:01:26;;;;;;;70.78;50.90;;;16.30;76.80;;;;;;4905470;28;90804;-52
2022/12/31 13:04:26;;;;;;;71.13;50.55;;;16.30;76.80;;;;;;4902431;28;89936;-50
2022/12/31 13:07:22;;;;;;;70.25;50.85;;;16.30;77.40;;;;;;4904655;28;92274;-57
2022/12/31 13:10:01;;;;;;;72.30;50.85;;;16.40;77.60;;;;;;4906108;28;91007;-49
2022/12/31 13:12:31;;;;;;;73.40;51.40;;;16.40;77.80;;;;;;4918323;28;89812;-48
2022/12/31 13:15:15;;;;;;;72.50;50.88;;;16.40;78.10;;;;;;4907002;28;89794;-49
2022/12/31 13:17:50;;;;;;;71.25;51.42;;;16.40;78.30;;;;;;4903793;28;93073;-49
2022/12/31 13:20:43;;;;;;;74.70;51.60;;;16.40;79.20;;;;;;4908077;28;90282;-50